INFORMACIÓN METAR y TAF

METAR FOR WAMM
ADDS - METARS form results

(1316 UTC 17 May 2021)
Data provider http://aviationweather.gov/metar/data/
 
METAR text: WAMM 171300Z VRB01KT 9000 SCT020 26/25 Q1009 NOSIG
Conditions at: WAMM (MENADO/SAM RATUL, ID) observed 1300 UTC 17 May 2021
Temperature: 26.0°C (79°F)
Dewpoint: 25.0°C (77°F) [RH = 94%]
Pressure (altimeter): 29.79 inches Hg (1009.0 mb)
Winds: variable direction winds at 1 MPH (1 knots; 0.5 m/s)
Visibility: 6 miles ( 9 km)
Ceiling: at least 12,000 feet AGL
Clouds: scattered clouds at 2000 feet AGL
Weather: no significant weather observed at this time

METAR text: WAMM 171230Z 00000KT 9999 SCT020 26/25 Q1010 NOSIG
Conditions at: WAMM (MENADO/SAM RATUL, ID) observed 1230 UTC 17 May 2021
Temperature: 26.0°C (79°F)
Dewpoint: 25.0°C (77°F) [RH = 94%]
Pressure (altimeter): 29.82 inches Hg (1010.0 mb)
Winds: calm
Visibility: 6 or more miles (10+ km)
Ceiling: at least 12,000 feet AGL
Clouds: scattered clouds at 2000 feet AGL
Weather: no significant weather observed at this time

Forecast for: WAMM (MENADO/SAM RATUL, ID)
Text: TAF WAMM 171100Z 1712/1818 VRB03KT 9999 SCT020
Forecast period: 1200 to 2300 UTC 17 May 2021
Forecast type: FROM: standard forecast or significant change
Winds: variable direction winds at 3 MPH (3 knots; 1.5 m/s)
Visibility: 6 or more miles (10+ km)
Ceiling: at least 12,000 feet AGL
Clouds: scattered clouds at 2000 feet AGL
Weather: no significant weather forecast for this period
Text: BECMG 1723/1800 20007KT
Forecast period: 2300 UTC 17 May 2021 to 1800 UTC 18 May 2021
Forecast type: BECOMING: Conditions expected to become as follows by 0000 UTC 18 May 2021
Winds: from the SSW (200 degrees) at 8 MPH (7 knots; 3.6 m/s)
Visibility: 6 or more miles (10+ km)
Ceiling: at least 12,000 feet AGL
Clouds: scattered clouds at 2000 feet AGL
Weather: no significant weather forecast for this period
Text: PROB40
Forecast period: 0400 to 0600 UTC 18 May 2021
Forecast type: TEMPORARY: The following changes expected for less than half the time period
Visibility: 3 miles (5 km)
Ceiling: 1800 feet AGL
Clouds: broken clouds at 1800 feet AGL
Weather: RA  (moderate rain)

 MAPA DE AEROPUERTO

 INFORMACIÓN DE PISTA
Pista 18 Longitud 8693 ft Ancho 148 ft
Elevación 270 ft Umbral desplazado 0 ft Rumbo de pista 182
Pista 36 Longitud 8693 ft Ancho 148 ft
Elevación 264 ft Umbral desplazado 0 ft Rumbo de pista 2

 FRECUENCIAS DEL AEROPUERTO
Tipo APP Nombre MANADO APP Frecuencia 119 MHZ
Tipo ATIS Nombre ATIS Frecuencia 126.4 MHZ
Tipo INFO Nombre MANADO INF Frecuencia 891.8 MHZ
Tipo TWR Nombre RATULANGI Frecuencia 118.1 MHZ

 RADIO AYUDAS DEL AEROPUERTO
Tipo NDB Nombre Manado Frecuencia 255 KHZ
Tipo VOR-DME Nombre Manado Frecuencia 114200 KHZ
Tipo VOR-DME Nombre Manado Frecuencia 114800 KHZ
Tipo NDB Nombre Manado Frecuencia 290 KHZ



©2021 LAPA Virtual - Todos los derechos reservados.

VAM [MOD Version] - Powered & Development by AccessPoint LLC